Time;durP1;ratioP1;P1;durP2;ratioP2;P2;SDS_P1;SDS_P2;PMS_P1;PMS_P2;Temp;Humidity;BMP_temperature;BMP_pressure;BME280_temperature;BME280_humidity;BME280_pressure;Samples;Min_cycle;Max_cycle;Signal;HPM_P1;HPM_P2
2021/08/02 00:00:26;;;;;;;4.43;2.07;;;14.60;99.90;;;;;;5048019;28;20470;-72
2021/08/02 00:03:03;;;;;;;2.57;2.37;;;14.60;99.90;;;;;;5048116;28;20466;-72
2021/08/02 00:05:36;;;;;;;3.87;2.40;;;14.60;99.90;;;;;;5048586;28;20494;-72
2021/08/02 00:08:03;;;;;;;3.40;3.03;;;14.60;99.90;;;;;;5048223;28;20455;-72
2021/08/02 00:10:32;;;;;;;3.10;2.77;;;14.60;99.90;;;;;;5047545;28;21170;-70
2021/08/02 00:13:01;;;;;;;7.70;2.37;;;14.60;99.90;;;;;;5047459;28;20470;-69
2021/08/02 00:15:29;;;;;;;2.70;2.50;;;14.60;99.90;;;;;;5046126;28;20476;-69
2021/08/02 00:17:57;;;;;;;3.23;2.40;;;14.60;99.90;;;;;;5047249;28;20483;-70
2021/08/02 00:20:28;;;;;;;2.90;2.70;;;14.50;99.90;;;;;;5047751;28;20478;-69
2021/08/02 00:22:57;;;;;;;4.50;2.33;;;14.50;99.90;;;;;;5048193;28;21204;-69
2021/08/02 00:25:24;;;;;;;2.77;2.50;;;14.50;99.90;;;;;;5048116;28;20498;-70
2021/08/02 00:27:53;;;;;;;5.43;2.70;;;14.60;99.90;;;;;;5048030;28;20458;-69
2021/08/02 00:30:21;;;;;;;3.33;2.50;;;14.50;99.90;;;;;;5047634;28;20529;-70
2021/08/02 00:32:47;;;;;;;3.07;2.77;;;14.50;99.90;;;;;;5047736;28;20833;-69
2021/08/02 00:35:14;;;;;;;2.83;2.50;;;14.50;99.90;;;;;;5047937;28;20479;-70
2021/08/02 00:37:47;;;;;;;3.47;2.33;;;14.50;99.90;;;;;;5047859;28;20479;-70
2021/08/02 00:41:16;;;;;;;3.60;2.80;;;14.60;99.90;;;;;;5047455;28;20525;-72
2021/08/02 00:44:12;;;;;;;2.80;2.60;;;14.60;99.90;;;;;;5047813;28;20463;-72
2021/08/02 00:46:41;;;;;;;2.63;2.23;;;14.60;99.90;;;;;;5047474;28;20577;-72
2021/08/02 00:49:11;;;;;;;2.63;2.43;;;14.60;99.90;;;;;;5047393;28;21287;-72
2021/08/02 00:51:43;;;;;;;3.57;2.77;;;14.60;99.90;;;;;;5047687;28;20463;-73
2021/08/02 00:54:10;;;;;;;2.33;2.10;;;14.60;99.90;;;;;;5047716;28;20459;-72
2021/08/02 00:56:39;;;;;;;2.60;2.40;;;14.60;99.90;;;;;;5047347;28;20494;-72
2021/08/02 00:59:07;;;;;;;2.90;2.43;;;14.60;99.90;;;;;;5047152;28;20848;-72
2021/08/02 01:01:35;;;;;;;4.53;2.40;;;14.60;99.90;;;;;;5047447;28;20497;-72
2021/08/02 01:04:03;;;;;;;2.90;2.70;;;14.60;99.90;;;;;;5047173;28;20839;-73
2021/08/02 01:06:31;;;;;;;3.50;2.73;;;14.60;99.90;;;;;;5047180;28;20475;-73
2021/08/02 01:09:02;;;;;;;3.67;2.20;;;14.60;99.90;;;;;;5047214;28;20458;-72
2021/08/02 01:11:30;;;;;;;2.50;2.30;;;14.60;99.90;;;;;;5047346;28;20471;-72
2021/08/02 01:14:00;;;;;;;2.50;2.30;;;14.60;99.90;;;;;;5047333;28;20458;-72
2021/08/02 01:16:28;;;;;;;3.13;2.77;;;14.60;99.90;;;;;;5047309;28;20574;-72
2021/08/02 01:18:56;;;;;;;2.77;2.00;;;14.60;99.90;;;;;;5046822;28;20491;-71
2021/08/02 01:21:24;;;;;;;4.97;1.93;;;14.60;99.90;;;;;;5049798;28;20829;-72
2021/08/02 01:27:09;;;;;;;2.53;2.33;;;14.60;99.90;;;;;;5061851;28;20470;-76
2021/08/02 01:30:13;;;;;;;2.70;2.50;;;14.60;99.90;;;;;;5068162;28;20454;-76
2021/08/02 01:32:42;;;;;;;2.37;2.17;;;14.60;99.90;;;;;;5070728;28;20454;-76
2021/08/02 01:35:12;;;;;;;4.00;2.53;;;14.70;99.90;;;;;;5071191;28;20485;-76
2021/08/02 01:37:39;;;;;;;2.40;2.20;;;14.70;99.90;;;;;;5071059;28;21079;-76
2021/08/02 01:40:07;;;;;;;3.60;2.30;;;14.70;99.90;;;;;;5070683;28;20473;-75
2021/08/02 01:42:34;;;;;;;3.93;2.50;;;14.70;99.90;;;;;;5070925;28;20894;-76
2021/08/02 01:45:01;;;;;;;2.83;2.50;;;14.70;99.90;;;;;;5070893;28;20493;-76
2021/08/02 01:47:36;;;;;;;5.77;2.67;;;14.70;99.90;;;;;;5070564;28;20463;-76
2021/08/02 01:50:11;;;;;;;2.73;2.53;;;14.70;99.90;;;;;;5070394;28;20489;-76
2021/08/02 01:52:45;;;;;;;2.70;2.50;;;14.70;99.90;;;;;;5070606;28;20997;-76
2021/08/02 01:55:17;;;;;;;2.67;2.23;;;14.70;99.90;;;;;;5070664;28;20482;-77
2021/08/02 01:57:50;;;;;;;4.10;2.50;;;14.70;99.90;;;;;;5070622;28;20463;-76
2021/08/02 02:00:18;;;;;;;2.40;2.20;;;14.70;99.90;;;;;;5070146;28;20473;-76
2021/08/02 02:02:53;;;;;;;3.47;2.50;;;14.70;99.90;;;;;;5070463;28;20458;-76
2021/08/02 02:05:24;;;;;;;4.00;2.20;;;14.70;99.90;;;;;;5070462;28;20917;-76
2021/08/02 02:07:58;;;;;;;2.80;2.60;;;14.70;99.90;;;;;;5070732;28;20465;-77
2021/08/02 02:10:28;;;;;;;3.23;2.80;;;14.70;99.90;;;;;;5070357;28;20836;-75
2021/08/02 02:12:56;;;;;;;4.40;2.50;;;14.70;99.90;;;;;;5070539;28;20458;-77
2021/08/02 02:15:23;;;;;;;4.67;2.50;;;14.60;99.90;;;;;;5070403;28;20487;-75
2021/08/02 02:17:51;;;;;;;3.23;2.60;;;14.70;99.90;;;;;;5069366;28;20462;-77
2021/08/02 02:20:21;;;;;;;5.40;2.37;;;14.70;99.90;;;;;;5069800;28;20465;-76
2021/08/02 02:22:48;;;;;;;2.87;2.67;;;14.60;99.90;;;;;;5070024;28;20459;-77
2021/08/02 02:25:15;;;;;;;2.57;2.37;;;14.60;99.90;;;;;;5070031;28;21005;-77
2021/08/02 02:27:43;;;;;;;3.77;2.47;;;14.60;99.90;;;;;;5070100;28;20459;-77
2021/08/02 02:30:11;;;;;;;3.00;2.70;;;14.60;99.90;;;;;;5069506;28;20465;-76
2021/08/02 02:32:39;;;;;;;4.90;2.53;;;14.60;99.90;;;;;;5069914;28;20473;-77
2021/08/02 02:35:07;;;;;;;2.87;2.27;;;14.60;99.90;;;;;;5069923;28;20860;-76
2021/08/02 02:37:35;;;;;;;2.30;2.10;;;14.60;99.90;;;;;;5069689;28;20981;-76
2021/08/02 02:40:03;;;;;;;3.67;2.50;;;14.60;99.90;;;;;;5069322;28;20490;-77
2021/08/02 02:42:31;;;;;;;2.90;2.60;;;14.60;99.90;;;;;;5069722;28;20844;-76
2021/08/02 02:44:59;;;;;;;2.83;2.50;;;14.60;99.90;;;;;;5069731;28;20478;-77
2021/08/02 02:47:27;;;;;;;3.20;2.90;;;14.50;99.90;;;;;;5069573;28;20566;-76
2021/08/02 02:49:55;;;;;;;2.60;2.40;;;14.50;99.90;;;;;;5069200;28;20466;-77
2021/08/02 02:52:24;;;;;;;2.60;2.23;;;14.50;99.90;;;;;;5069551;28;20949;-77
2021/08/02 02:54:54;;;;;;;2.80;2.00;;;14.50;99.90;;;;;;5069693;28;20484;-77
2021/08/02 02:57:21;;;;;;;2.20;2.00;;;14.50;99.90;;;;;;5069560;28;20467;-76
2021/08/02 02:59:48;;;;;;;2.60;2.40;;;14.50;99.90;;;;;;5068812;28;20508;-75
2021/08/02 03:02:15;;;;;;;3.47;2.23;;;14.50;99.90;;;;;;5069226;28;20469;-77
2021/08/02 03:04:47;;;;;;;2.77;2.30;;;14.50;99.90;;;;;;5069336;28;20946;-77
2021/08/02 03:07:16;;;;;;;2.40;2.20;;;14.50;99.90;;;;;;5069531;28;20501;-76
2021/08/02 03:09:46;;;;;;;2.57;2.37;;;14.50;99.90;;;;;;5068739;28;20457;-77
2021/08/02 03:12:14;;;;;;;2.63;2.43;;;14.40;99.90;;;;;;5069312;28;20458;-77
2021/08/02 03:14:42;;;;;;;4.03;2.57;;;14.40;99.90;;;;;;5069010;28;20467;-76
2021/08/02 03:17:09;;;;;;;5.10;2.43;;;14.40;99.90;;;;;;5069426;28;20486;-76
2021/08/02 03:19:37;;;;;;;3.60;2.70;;;14.40;99.90;;;;;;5068544;28;20486;-75
2021/08/02 03:22:12;;;;;;;2.93;2.67;;;14.40;99.90;;;;;;5069400;28;20466;-77
2021/08/02 03:24:44;;;;;;;2.83;2.50;;;14.40;99.90;;;;;;5068786;28;20473;-77
2021/08/02 03:27:22;;;;;;;3.13;2.50;;;14.40;99.90;;;;;;5071775;28;20463;-77
2021/08/02 03:29:51;;;;;;;2.80;2.23;;;14.40;99.90;;;;;;5072617;28;20477;-78
2021/08/02 03:32:19;;;;;;;3.03;2.20;;;14.40;99.90;;;;;;5074544;28;20466;-78
2021/08/02 03:34:51;;;;;;;2.60;2.40;;;14.40;99.90;;;;;;5060585;28;20834;-78
2021/08/02 03:37:20;;;;;;;2.83;2.53;;;14.40;99.90;;;;;;5052369;28;20459;-77
2021/08/02 03:39:49;;;;;;;2.40;2.20;;;14.40;99.90;;;;;;5052465;28;20483;-77
2021/08/02 03:42:16;;;;;;;2.50;2.30;;;14.40;99.90;;;;;;5061588;28;20446;-78
2021/08/02 03:44:46;;;;;;;4.53;2.57;;;14.40;99.90;;;;;;5072027;28;20478;-77
2021/08/02 03:47:13;;;;;;;2.67;2.47;;;14.40;99.90;;;;;;5059813;28;20459;-77
2021/08/02 03:49:40;;;;;;;2.93;2.43;;;14.40;99.90;;;;;;5061164;28;20484;-78
2021/08/02 03:52:07;;;;;;;3.57;2.63;;;14.40;99.90;;;;;;5062771;28;20462;-76
2021/08/02 03:54:34;;;;;;;3.17;2.80;;;14.40;99.90;;;;;;5057704;28;20481;-77
2021/08/02 03:57:02;;;;;;;3.20;2.90;;;14.30;99.90;;;;;;5058815;28;20934;-77
2021/08/02 03:59:29;;;;;;;2.50;2.30;;;14.40;99.90;;;;;;5052770;28;20483;-78
2021/08/02 04:01:58;;;;;;;2.70;2.50;;;14.40;99.90;;;;;;5050204;28;20463;-77
2021/08/02 04:04:24;;;;;;;2.83;2.30;;;14.40;99.90;;;;;;5048511;28;20461;-78
2021/08/02 04:06:51;;;;;;;3.80;2.90;;;14.40;99.90;;;;;;5049955;28;20462;-78
2021/08/02 04:09:19;;;;;;;2.30;2.10;;;14.40;99.90;;;;;;5050994;28;20456;-78
2021/08/02 04:11:45;;;;;;;2.20;2.00;;;14.40;99.90;;;;;;5050375;28;20470;-78
2021/08/02 04:14:13;;;;;;;2.23;1.97;;;14.40;99.90;;;;;;5060223;28;20828;-78
2021/08/02 04:16:40;;;;;;;3.00;2.70;;;14.40;99.90;;;;;;5059663;28;20485;-77
2021/08/02 04:19:08;;;;;;;2.80;2.60;;;14.40;99.90;;;;;;5062205;28;20482;-77
2021/08/02 04:21:35;;;;;;;4.70;2.90;;;14.50;99.90;;;;;;5049574;28;20459;-77
2021/08/02 04:24:03;;;;;;;3.13;2.87;;;14.50;99.90;;;;;;5049212;28;20463;-77
2021/08/02 04:26:29;;;;;;;2.90;2.57;;;14.50;99.90;;;;;;5058144;28;20485;-77
2021/08/02 04:28:57;;;;;;;2.50;2.30;;;14.50;99.90;;;;;;5055036;28;20462;-77
2021/08/02 04:31:24;;;;;;;3.73;2.43;;;14.40;99.90;;;;;;5049268;28;20456;-77
2021/08/02 04:33:51;;;;;;;2.63;2.43;;;14.40;99.90;;;;;;5048634;28;20486;-76
2021/08/02 04:36:20;;;;;;;5.73;2.43;;;14.50;99.90;;;;;;5049329;28;20494;-77
2021/08/02 04:38:46;;;;;;;2.33;2.20;;;14.40;99.90;;;;;;5050737;28;20593;-77
2021/08/02 04:41:13;;;;;;;3.70;2.33;;;14.50;99.90;;;;;;5050155;28;20459;-76
2021/08/02 04:43:40;;;;;;;3.67;2.53;;;14.50;99.90;;;;;;5054467;28;20922;-76
2021/08/02 04:46:07;;;;;;;6.43;2.57;;;14.50;99.90;;;;;;5055241;28;20475;-78
2021/08/02 04:48:34;;;;;;;2.97;2.50;;;14.50;99.90;;;;;;5053991;28;20455;-77
2021/08/02 04:51:01;;;;;;;3.80;2.90;;;14.50;99.90;;;;;;5054458;28;20470;-77
2021/08/02 04:53:29;;;;;;;3.13;2.50;;;14.50;99.90;;;;;;5055117;28;20830;-78
2021/08/02 04:55:55;;;;;;;3.97;2.43;;;14.50;99.90;;;;;;5054232;28;20479;-77
2021/08/02 04:58:22;;;;;;;2.60;2.40;;;14.50;99.90;;;;;;5054304;28;20975;-77
2021/08/02 05:00:49;;;;;;;2.90;2.70;;;14.50;99.90;;;;;;5053428;28;20824;-77
2021/08/02 05:03:15;;;;;;;3.07;2.53;;;14.50;99.90;;;;;;5053972;28;20467;-77
2021/08/02 05:05:42;;;;;;;2.77;2.57;;;14.50;99.90;;;;;;5053621;28;20482;-77
2021/08/02 05:08:09;;;;;;;7.53;2.97;;;14.60;99.90;;;;;;5054091;28;20455;-76
2021/08/02 05:10:37;;;;;;;2.40;2.20;;;14.60;99.90;;;;;;5052868;28;20459;-77
2021/08/02 05:13:04;;;;;;;2.90;2.40;;;14.60;99.90;;;;;;5053771;28;20463;-77
2021/08/02 05:15:31;;;;;;;2.63;2.43;;;14.60;99.90;;;;;;5053317;28;20482;-77
2021/08/02 05:17:57;;;;;;;3.40;2.40;;;14.60;99.90;;;;;;5053788;28;20452;-77
2021/08/02 05:20:24;;;;;;;2.97;2.67;;;14.60;99.90;;;;;;5053474;28;20574;-77
2021/08/02 05:22:52;;;;;;;3.40;2.30;;;14.60;99.90;;;;;;5054076;28;20474;-77
2021/08/02 05:25:19;;;;;;;2.60;2.40;;;14.60;99.90;;;;;;5053538;28;20499;-77
2021/08/02 05:27:52;;;;;;;3.40;2.50;;;14.60;99.90;;;;;;5053733;28;20469;-77
2021/08/02 05:30:19;;;;;;;2.70;2.50;;;14.60;99.90;;;;;;5053315;28;20959;-77
2021/08/02 05:32:46;;;;;;;3.27;2.80;;;14.60;99.90;;;;;;5053535;28;20474;-77
2021/08/02 05:35:14;;;;;;;2.37;2.17;;;14.60;99.90;;;;;;5054214;28;20506;-77
2021/08/02 05:37:40;;;;;;;4.63;2.60;;;14.60;99.90;;;;;;5054052;28;20505;-78
2021/08/02 05:40:09;;;;;;;2.40;2.20;;;14.60;99.90;;;;;;5053444;28;20601;-77
2021/08/02 05:42:36;;;;;;;3.83;2.10;;;14.60;99.90;;;;;;5053853;28;20474;-77
2021/08/02 05:45:05;;;;;;;3.70;2.60;;;14.60;99.90;;;;;;5053947;28;20507;-77
2021/08/02 05:47:33;;;;;;;3.00;2.50;;;14.60;99.90;;;;;;5053365;28;20463;-77
2021/08/02 05:49:59;;;;;;;2.80;2.60;;;14.60;99.90;;;;;;5052247;28;20463;-76
2021/08/02 05:52:26;;;;;;;4.23;2.60;;;14.60;99.90;;;;;;5051896;28;20470;-76
2021/08/02 05:54:53;;;;;;;2.40;2.20;;;14.60;99.90;;;;;;5052364;28;20479;-77
2021/08/02 05:57:21;;;;;;;2.60;2.40;;;14.60;99.90;;;;;;5052996;28;20839;-77
2021/08/02 05:59:48;;;;;;;3.60;2.50;;;14.70;99.90;;;;;;5052492;28;20515;-77
2021/08/02 06:02:17;;;;;;;3.10;2.80;;;14.70;99.90;;;;;;5052812;28;20467;-77
2021/08/02 06:04:43;;;;;;;2.73;2.53;;;14.70;99.90;;;;;;5052881;28;20488;-78
2021/08/02 06:07:10;;;;;;;3.60;2.40;;;14.70;99.90;;;;;;5053746;28;20463;-77
2021/08/02 06:09:37;;;;;;;2.30;2.10;;;14.70;99.90;;;;;;5051805;28;20460;-78
2021/08/02 06:12:04;;;;;;;5.43;2.90;;;14.70;99.90;;;;;;5052766;28;20835;-77
2021/08/02 06:14:31;;;;;;;2.50;2.30;;;14.70;99.90;;;;;;5052263;28;20471;-76
2021/08/02 06:16:57;;;;;;;3.97;2.63;;;14.80;99.90;;;;;;5052552;28;20459;-77
2021/08/02 06:19:25;;;;;;;2.40;2.20;;;14.70;99.90;;;;;;5052235;28;20490;-77
2021/08/02 06:21:52;;;;;;;5.30;2.33;;;14.70;99.90;;;;;;5052548;28;20459;-76
2021/08/02 06:24:19;;;;;;;3.00;2.40;;;14.70;99.90;;;;;;5051953;28;20474;-79
2021/08/02 06:26:46;;;;;;;3.33;2.57;;;14.70;99.90;;;;;;5052028;28;20484;-77
2021/08/02 06:29:12;;;;;;;3.70;2.70;;;14.70;99.90;;;;;;5051776;28;20489;-76
2021/08/02 06:31:39;;;;;;;2.90;2.57;;;14.70;99.90;;;;;;5052398;28;20475;-76
2021/08/02 06:34:05;;;;;;;2.73;2.33;;;14.70;99.90;;;;;;5051938;28;20985;-76
2021/08/02 06:36:34;;;;;;;4.73;2.37;;;14.70;99.90;;;;;;5051554;28;20872;-78
2021/08/02 06:39:01;;;;;;;6.20;2.60;;;14.80;99.90;;;;;;5051569;28;20463;-78
2021/08/02 06:41:27;;;;;;;3.60;2.30;;;14.80;99.90;;;;;;5050874;28;20470;-77
2021/08/02 06:43:54;;;;;;;2.70;2.50;;;14.90;99.90;;;;;;5051290;28;20463;-77
2021/08/02 06:46:21;;;;;;;3.80;2.93;;;14.90;99.90;;;;;;5051420;28;21069;-77
2021/08/02 06:48:47;;;;;;;3.90;2.90;;;14.90;99.90;;;;;;5051470;28;20471;-78
2021/08/02 06:51:15;;;;;;;3.00;2.70;;;15.00;99.90;;;;;;5051497;28;20499;-77
2021/08/02 06:53:43;;;;;;;2.80;2.00;;;15.00;99.90;;;;;;5051187;28;20463;-77
2021/08/02 06:56:09;;;;;;;2.80;2.60;;;15.10;99.90;;;;;;5051518;28;20484;-77
2021/08/02 06:58:36;;;;;;;4.33;3.17;;;15.10;99.90;;;;;;5051512;28;20978;-77
2021/08/02 07:01:03;;;;;;;2.37;2.17;;;15.10;99.90;;;;;;5051608;28;20483;-77
2021/08/02 07:03:29;;;;;;;2.70;2.50;;;15.20;99.90;;;;;;5052281;28;20463;-77
2021/08/02 07:05:56;;;;;;;4.27;2.57;;;15.30;99.90;;;;;;5051474;28;20491;-77
2021/08/02 07:08:23;;;;;;;3.67;2.77;;;15.30;99.90;;;;;;5051787;28;20466;-77
2021/08/02 07:10:51;;;;;;;2.97;2.47;;;15.40;99.90;;;;;;5051357;28;20872;-77
2021/08/02 07:13:18;;;;;;;4.03;2.60;;;15.50;99.90;;;;;;5051442;28;20463;-76
2021/08/02 07:15:44;;;;;;;2.73;2.30;;;15.50;99.90;;;;;;5052008;28;20472;-78
2021/08/02 07:18:11;;;;;;;2.40;2.20;;;15.60;99.90;;;;;;5052062;28;20467;-77
2021/08/02 07:20:39;;;;;;;3.80;2.27;;;15.60;99.90;;;;;;5051077;28;20493;-78
2021/08/02 07:23:06;;;;;;;2.33;2.13;;;15.60;99.90;;;;;;5051732;28;20904;-77
2021/08/02 07:25:33;;;;;;;4.03;2.50;;;15.70;99.90;;;;;;5126084;22;20509;-68
2021/08/02 07:28:01;;;;;;;2.03;1.83;;;15.70;99.90;;;;;;5052545;28;20487;-69
2021/08/02 07:30:27;;;;;;;2.50;2.30;;;15.80;99.90;;;;;;5068679;28;20488;-69
2021/08/02 07:32:54;;;;;;;2.77;2.10;;;15.80;99.90;;;;;;5069488;28;20476;-68
2021/08/02 07:35:21;;;;;;;3.20;2.20;;;15.90;99.90;;;;;;5061291;28;20487;-69
2021/08/02 07:37:48;;;;;;;2.53;2.13;;;15.90;99.90;;;;;;5049419;28;20463;-68
2021/08/02 07:40:14;;;;;;;4.03;2.43;;;16.00;99.90;;;;;;5048266;28;21010;-68
2021/08/02 07:42:41;;;;;;;2.73;2.20;;;16.10;99.90;;;;;;5049512;28;20837;-68
2021/08/02 07:45:10;;;;;;;3.43;2.30;;;16.10;99.90;;;;;;5049444;28;20490;-68
2021/08/02 07:47:37;;;;;;;3.73;2.00;;;16.20;99.90;;;;;;5049436;28;20463;-68
2021/08/02 07:50:05;;;;;;;3.77;2.50;;;16.20;99.90;;;;;;5048683;28;20466;-69
2021/08/02 07:52:32;;;;;;;2.60;2.00;;;16.30;99.90;;;;;;5049316;28;20545;-68
2021/08/02 07:54:58;;;;;;;4.70;2.20;;;16.30;99.90;;;;;;5049047;28;21013;-68
2021/08/02 07:57:26;;;;;;;3.93;2.30;;;16.40;99.90;;;;;;5042315;28;20463;-69
2021/08/02 07:59:54;;;;;;;4.10;2.20;;;16.40;99.90;;;;;;5046291;28;20490;-68
2021/08/02 08:02:22;;;;;;;1.87;1.73;;;16.50;99.90;;;;;;5047495;28;20521;-69
2021/08/02 08:04:49;;;;;;;2.20;2.00;;;16.50;99.90;;;;;;5048343;28;20538;-69
2021/08/02 08:07:16;;;;;;;2.60;2.03;;;16.50;99.90;;;;;;5048568;28;20463;-69
2021/08/02 08:09:43;;;;;;;2.07;1.87;;;16.60;99.90;;;;;;5048197;28;20843;-68
2021/08/02 08:12:09;;;;;;;3.43;2.07;;;16.70;99.90;;;;;;5035911;28;20460;-69
2021/08/02 08:14:36;;;;;;;2.40;2.20;;;16.70;99.90;;;;;;5028680;28;20551;-69
2021/08/02 08:17:03;;;;;;;2.97;2.10;;;16.80;99.90;;;;;;5030219;28;20467;-68
2021/08/02 08:19:32;;;;;;;2.40;1.90;;;16.80;99.90;;;;;;5031847;28;20464;-69
2021/08/02 08:21:59;;;;;;;4.30;1.80;;;16.90;99.90;;;;;;5032339;28;20557;-69
2021/08/02 08:24:26;;;;;;;2.07;1.83;;;16.90;99.90;;;;;;5032201;28;20467;-69
2021/08/02 08:26:53;;;;;;;3.80;2.00;;;17.00;99.90;;;;;;5032040;28;20468;-68
2021/08/02 08:29:20;;;;;;;2.40;2.07;;;17.10;99.90;;;;;;5032091;28;20464;-69
2021/08/02 08:31:47;;;;;;;2.23;2.03;;;17.20;99.90;;;;;;5032221;28;20453;-69
2021/08/02 08:34:13;;;;;;;3.23;2.10;;;17.20;99.90;;;;;;5032256;28;20471;-69
2021/08/02 08:36:41;;;;;;;9.60;3.30;;;17.30;99.90;;;;;;5031676;28;20498;-68
2021/08/02 08:39:08;;;;;;;3.20;2.57;;;17.40;99.90;;;;;;5031823;28;20456;-68
2021/08/02 08:41:36;;;;;;;3.67;2.23;;;17.40;99.90;;;;;;5032073;28;20479;-69
2021/08/02 08:44:03;;;;;;;3.77;2.10;;;17.40;99.90;;;;;;5032034;28;20471;-68
2021/08/02 08:46:29;;;;;;;3.20;2.20;;;17.50;99.90;;;;;;5032006;28;20483;-69
2021/08/02 08:48:56;;;;;;;2.03;1.93;;;17.50;99.90;;;;;;5049323;28;20455;-68
2021/08/02 08:51:24;;;;;;;5.00;2.10;;;17.50;99.90;;;;;;5051429;28;20466;-68
2021/08/02 08:53:53;;;;;;;2.00;1.80;;;17.60;99.90;;;;;;5051931;28;20463;-68
2021/08/02 08:56:20;;;;;;;3.57;2.43;;;17.70;99.90;;;;;;5051736;28;20998;-67
2021/08/02 08:58:47;;;;;;;3.00;2.20;;;17.70;99.90;;;;;;5051512;28;20463;-68
2021/08/02 09:01:13;;;;;;;2.83;1.63;;;17.70;99.90;;;;;;5051070;28;20487;-68
2021/08/02 09:03:51;;;;;;;3.10;2.03;;;17.70;99.90;;;;;;5051502;28;20455;-68
2021/08/02 09:06:18;;;;;;;2.10;1.90;;;17.80;99.90;;;;;;5039717;28;21476;-69
2021/08/02 09:08:45;;;;;;;2.23;1.80;;;17.80;99.90;;;;;;5028416;28;20870;-69
2021/08/02 09:11:19;;;;;;;3.23;1.97;;;18.00;99.90;;;;;;5029108;28;20876;-68
2021/08/02 09:13:47;;;;;;;2.03;1.93;;;18.10;99.90;;;;;;5029395;28;20460;-69
2021/08/02 09:16:15;;;;;;;2.57;1.80;;;18.20;99.90;;;;;;5029113;28;20546;-69
2021/08/02 09:18:55;;;;;;;2.43;1.93;;;18.40;99.90;;;;;;5028751;28;20449;-69
2021/08/02 09:21:23;;;;;;;4.00;2.00;;;18.50;99.90;;;;;;5027994;28;20492;-68
2021/08/02 09:23:51;;;;;;;3.13;2.10;;;18.60;99.90;;;;;;5028799;28;20530;-69
2021/08/02 09:26:29;;;;;;;3.23;2.10;;;18.60;99.90;;;;;;5028660;28;20500;-68
2021/08/02 09:28:56;;;;;;;3.63;2.53;;;18.50;99.90;;;;;;5027799;28;20498;-68
2021/08/02 09:31:33;;;;;;;2.73;2.17;;;18.60;99.90;;;;;;5028837;28;21154;-69
2021/08/02 09:34:03;;;;;;;2.37;2.17;;;18.70;99.90;;;;;;5028769;28;21018;-69
2021/08/02 09:36:38;;;;;;;2.60;2.37;;;18.80;99.90;;;;;;5028053;28;20554;-69
2021/08/02 09:39:10;;;;;;;3.10;2.10;;;19.00;99.90;;;;;;5028900;28;20555;-69
2021/08/02 09:41:39;;;;;;;2.70;2.03;;;19.10;99.90;;;;;;5028648;28;20554;-69
2021/08/02 09:44:07;;;;;;;1.83;1.73;;;19.30;99.90;;;;;;5028036;28;20464;-69
2021/08/02 09:46:35;;;;;;;4.37;2.17;;;19.20;99.90;;;;;;5028401;28;20571;-69
2021/08/02 09:49:05;;;;;;;3.67;2.23;;;19.20;99.90;;;;;;5028788;28;20472;-69
2021/08/02 09:51:43;;;;;;;1.90;1.80;;;19.20;99.90;;;;;;5029334;28;20484;-69
2021/08/02 09:54:10;;;;;;;2.27;2.07;;;19.30;99.90;;;;;;5029849;28;20853;-69
2021/08/02 09:56:40;;;;;;;4.40;2.40;;;19.30;99.90;;;;;;5029715;28;20491;-69
2021/08/02 09:59:09;;;;;;;2.23;1.83;;;19.40;99.90;;;;;;5029110;28;20963;-69
2021/08/02 10:01:36;;;;;;;2.00;1.80;;;19.50;99.90;;;;;;5029384;28;20535;-69
2021/08/02 10:04:04;;;;;;;2.17;1.97;;;19.60;99.90;;;;;;5028778;28;20548;-70
2021/08/02 10:06:31;;;;;;;4.23;1.87;;;19.60;99.90;;;;;;5029074;28;20887;-70
2021/08/02 10:09:00;;;;;;;5.00;2.10;;;19.50;99.90;;;;;;5029004;28;20467;-69
2021/08/02 10:11:27;;;;;;;1.97;1.60;;;19.40;99.90;;;;;;5029653;28;20464;-69
2021/08/02 10:13:57;;;;;;;2.07;1.83;;;19.40;99.90;;;;;;5028029;28;20793;-68
2021/08/02 10:16:28;;;;;;;2.13;1.93;;;19.60;99.90;;;;;;5028575;28;20861;-69
2021/08/02 10:19:05;;;;;;;1.63;1.53;;;19.70;99.90;;;;;;5028671;28;20821;-70
2021/08/02 10:21:40;;;;;;;2.30;2.00;;;20.00;99.90;;;;;;5028321;28;20494;-70
2021/08/02 10:24:08;;;;;;;2.03;1.93;;;20.00;99.90;;;;;;5028277;28;20888;-69
2021/08/02 10:26:35;;;;;;;1.80;1.70;;;20.00;99.90;;;;;;5027448;28;20492;-69
2021/08/02 10:29:07;;;;;;;3.70;2.10;;;20.00;99.90;;;;;;5031251;28;20464;-69
2021/08/02 10:31:45;;;;;;;1.70;1.60;;;20.20;99.90;;;;;;5035917;28;20487;-69
2021/08/02 10:34:17;;;;;;;2.03;1.77;;;20.30;99.90;;;;;;5044415;28;20482;-70
2021/08/02 10:36:55;;;;;;;2.67;2.00;;;20.30;99.90;;;;;;5047227;28;20487;-69
2021/08/02 10:39:23;;;;;;;1.70;1.60;;;20.20;99.90;;;;;;5046344;28;20463;-69
2021/08/02 10:41:50;;;;;;;2.10;1.90;;;20.10;99.90;;;;;;5047171;28;20518;-69
2021/08/02 10:44:20;;;;;;;3.13;1.97;;;20.00;99.90;;;;;;5047618;28;20460;-69
2021/08/02 10:46:47;;;;;;;1.80;1.70;;;20.00;99.90;;;;;;5047133;28;20487;-69
2021/08/02 10:49:17;;;;;;;2.30;2.10;;;20.00;99.90;;;;;;5046398;28;20463;-69
2021/08/02 10:51:49;;;;;;;1.80;1.70;;;20.10;99.90;;;;;;5047421;28;20840;-70
2021/08/02 10:54:16;;;;;;;2.20;1.90;;;20.30;99.90;;;;;;5047548;28;20487;-69
2021/08/02 10:56:48;;;;;;;2.03;1.90;;;20.40;99.90;;;;;;5046584;28;20483;-69
2021/08/02 10:59:15;;;;;;;2.27;1.67;;;20.60;99.90;;;;;;5047413;28;20459;-69
2021/08/02 11:01:48;;;;;;;2.50;2.20;;;20.70;99.90;;;;;;5046559;28;20854;-69
2021/08/02 11:04:17;;;;;;;2.93;2.00;;;20.80;99.90;;;;;;5046775;28;21269;-70
2021/08/02 11:06:46;;;;;;;1.70;1.57;;;20.70;99.90;;;;;;5046479;28;20549;-69
2021/08/02 11:09:14;;;;;;;1.90;1.43;;;20.40;99.90;;;;;;5046686;28;20698;-70
2021/08/02 11:11:42;;;;;;;1.67;1.57;;;20.10;99.90;;;;;;5047213;28;20487;-69
2021/08/02 11:14:10;;;;;;;2.13;1.33;;;19.80;99.90;;;;;;5046910;28;20554;-69
2021/08/02 11:16:40;;;;;;;1.40;1.30;;;19.50;99.90;;;;;;5047097;28;21013;-69
2021/08/02 11:19:15;;;;;;;2.47;1.60;;;19.30;99.90;;;;;;5046816;28;20923;-69
2021/08/02 11:21:43;;;;;;;1.40;1.30;;;19.10;99.90;;;;;;5047365;28;20487;-69
2021/08/02 11:24:11;;;;;;;2.30;2.00;;;19.00;99.90;;;;;;5047172;28;20897;-69
2021/08/02 11:26:47;;;;;;;2.80;1.83;;;19.00;99.90;;;;;;5046978;28;20487;-69
2021/08/02 11:29:19;;;;;;;2.10;1.70;;;18.90;99.90;;;;;;5047556;28;20575;-69
2021/08/02 11:31:58;;;;;;;2.20;2.00;;;18.80;99.90;;;;;;5047502;28;20463;-69
2021/08/02 11:34:28;;;;;;;2.40;1.73;;;18.70;99.90;;;;;;5042305;28;20463;-68
2021/08/02 11:37:00;;;;;;;3.33;1.87;;;18.80;99.90;;;;;;5042496;28;20494;-69
2021/08/02 11:39:27;;;;;;;3.37;2.20;;;19.10;99.90;;;;;;5042211;28;20597;-69
2021/08/02 11:42:06;;;;;;;1.63;1.40;;;19.40;99.90;;;;;;5042320;28;21275;-69
2021/08/02 11:44:34;;;;;;;2.40;1.50;;;19.70;99.90;;;;;;5042355;28;21036;-69
2021/08/02 11:47:03;;;;;;;2.83;1.77;;;19.70;99.90;;;;;;5042716;28;20473;-70
2021/08/02 11:49:35;;;;;;;2.83;2.00;;;19.90;99.90;;;;;;5038503;28;20464;-70
2021/08/02 11:52:03;;;;;;;1.77;1.67;;;20.10;99.90;;;;;;5026794;28;21050;-69
2021/08/02 11:54:30;;;;;;;1.87;1.70;;;20.30;99.90;;;;;;5026587;28;20460;-69
2021/08/02 11:56:57;;;;;;;1.77;1.67;;;20.60;99.90;;;;;;5026142;28;20991;-69
2021/08/02 11:59:25;;;;;;;2.30;1.50;;;20.80;99.90;;;;;;5038284;28;21202;-70
2021/08/02 12:01:54;;;;;;;1.77;1.63;;;20.80;99.90;;;;;;5046795;28;20523;-69
2021/08/02 12:04:23;;;;;;;2.10;1.63;;;20.60;99.90;;;;;;5045917;28;20468;-69
2021/08/02 12:06:53;;;;;;;1.77;1.67;;;20.50;99.90;;;;;;5045860;28;20520;-70
2021/08/02 12:09:34;;;;;;;1.83;1.60;;;20.20;99.90;;;;;;5045570;28;21218;-69
2021/08/02 12:12:02;;;;;;;2.50;1.73;;;20.00;99.90;;;;;;5045617;28;20463;-69
2021/08/02 12:14:31;;;;;;;2.93;2.17;;;19.80;99.90;;;;;;5045684;28;20470;-69
2021/08/02 12:17:06;;;;;;;2.33;1.80;;;19.60;99.90;;;;;;5045510;28;20487;-69
2021/08/02 12:19:44;;;;;;;2.13;1.93;;;19.40;99.90;;;;;;5045093;28;20565;-69
2021/08/02 12:22:13;;;;;;;5.13;1.50;;;19.20;99.90;;;;;;5045722;28;20487;-69
2021/08/02 12:24:54;;;;;;;2.20;1.80;;;19.20;99.90;;;;;;5045549;28;20459;-69
2021/08/02 12:27:21;;;;;;;2.63;1.80;;;19.30;99.90;;;;;;5045064;28;20455;-69
2021/08/02 12:29:59;;;;;;;1.80;1.67;;;19.50;99.90;;;;;;5044989;28;20459;-70
2021/08/02 12:32:36;;;;;;;1.80;1.47;;;19.50;99.90;;;;;;5041124;28;20460;-69
2021/08/02 12:35:04;;;;;;;1.97;1.40;;;19.50;99.90;;;;;;5025663;28;20480;-69
2021/08/02 12:37:32;;;;;;;3.00;1.90;;;19.70;99.90;;;;;;5025720;28;20467;-70
2021/08/02 12:39:59;;;;;;;2.03;1.80;;;19.90;99.90;;;;;;5024780;28;20466;-70
2021/08/02 12:42:27;;;;;;;1.60;1.50;;;20.10;99.90;;;;;;5026432;28;20488;-69
2021/08/02 12:44:54;;;;;;;5.20;3.00;;;20.30;99.90;;;;;;5025889;28;20494;-70
2021/08/02 12:47:20;;;;;;;31.20;10.60;;;20.60;99.90;;;;;;5025538;28;20490;-69
2021/08/02 12:49:47;;;;;;;11.93;5.40;;;20.80;99.90;;;;;;5024776;28;20460;-68
2021/08/02 12:52:14;;;;;;;10.90;5.17;;;20.90;99.90;;;;;;5028473;28;20467;-69
2021/08/02 12:54:42;;;;;;;3.83;2.20;;;20.90;99.90;;;;;;5029187;28;20464;-69
2021/08/02 12:57:09;;;;;;;2.57;2.00;;;20.80;99.90;;;;;;5031463;28;20466;-69